Time;durP1;ratioP1;P1;durP2;ratioP2;P2;SDS_P1;SDS_P2;PMS_P1;PMS_P2;Temp;Humidity;BMP_temperature;BMP_pressure;BME280_temperature;BME280_humidity;BME280_pressure;Samples;Min_cycle;Max_cycle;Signal;HPM_P1;HPM_P2
2023/11/09 00:00:16;;;;;;;1.43;0.90;;;11.30;88.80;;;;;;5038125;28;20533;-46
2023/11/09 00:02:45;;;;;;;1.70;1.37;;;11.30;88.60;;;;;;5038060;28;20900;-46
2023/11/09 00:05:14;;;;;;;2.20;1.10;;;11.30;88.40;;;;;;5040925;28;20970;-47
2023/11/09 00:07:42;;;;;;;2.00;1.30;;;11.30;88.40;;;;;;5043044;28;20457;-46
2023/11/09 00:10:12;;;;;;;1.60;1.10;;;11.30;88.50;;;;;;5040513;28;20458;-45
2023/11/09 00:12:41;;;;;;;2.17;0.83;;;11.30;88.70;;;;;;5041375;28;20458;-46
2023/11/09 00:15:10;;;;;;;1.37;0.87;;;11.30;88.60;;;;;;5038503;28;21189;-46
2023/11/09 00:17:39;;;;;;;1.77;1.13;;;11.30;88.90;;;;;;5038845;28;20487;-46
2023/11/09 00:20:10;;;;;;;1.37;0.93;;;11.30;88.90;;;;;;5037513;28;20981;-47
2023/11/09 00:22:38;;;;;;;1.90;1.10;;;11.30;88.80;;;;;;5036210;28;20586;-46
2023/11/09 00:25:07;;;;;;;2.43;1.30;;;11.30;88.70;;;;;;5038760;28;20453;-46
2023/11/09 00:27:36;;;;;;;2.00;0.93;;;11.40;88.80;;;;;;5044560;28;20466;-47
2023/11/09 00:30:04;;;;;;;2.70;1.10;;;11.30;88.60;;;;;;5038593;28;20447;-46
2023/11/09 00:32:34;;;;;;;1.70;1.13;;;11.40;88.80;;;;;;5038427;28;20475;-47
2023/11/09 00:35:05;;;;;;;1.80;0.97;;;11.40;88.80;;;;;;5040688;28;20441;-46
2023/11/09 00:37:33;;;;;;;3.30;1.03;;;11.30;88.70;;;;;;5037417;28;21044;-45
2023/11/09 00:40:04;;;;;;;2.00;1.50;;;11.30;88.70;;;;;;5040503;28;20536;-46
2023/11/09 00:42:33;;;;;;;3.13;0.97;;;11.40;89.00;;;;;;5041058;28;20915;-46
2023/11/09 00:45:01;;;;;;;1.50;1.00;;;11.30;89.00;;;;;;5041514;28;20444;-46
2023/11/09 00:47:32;;;;;;;1.90;1.07;;;11.40;88.80;;;;;;5033068;28;20854;-47
2023/11/09 00:50:00;;;;;;;1.70;1.40;;;11.30;89.00;;;;;;5038687;28;20490;-47
2023/11/09 00:52:30;;;;;;;1.57;1.00;;;11.30;88.70;;;;;;5041247;28;20463;-46
2023/11/09 00:54:59;;;;;;;1.27;0.97;;;11.30;88.50;;;;;;5036803;28;20943;-47
2023/11/09 00:57:32;;;;;;;1.50;1.00;;;11.40;88.60;;;;;;5040755;28;20555;-47
2023/11/09 01:00:00;;;;;;;1.50;0.70;;;11.40;88.60;;;;;;5038736;28;20435;-47
2023/11/09 01:02:33;;;;;;;1.00;0.60;;;11.30;88.70;;;;;;5036869;28;20475;-46
2023/11/09 01:05:02;;;;;;;1.73;1.10;;;11.40;88.70;;;;;;5035383;28;20447;-47
2023/11/09 01:07:32;;;;;;;1.40;1.10;;;11.30;88.80;;;;;;5043682;28;20474;-46
2023/11/09 01:10:00;;;;;;;1.90;1.00;;;11.30;88.80;;;;;;5042173;28;20457;-47
2023/11/09 01:12:30;;;;;;;2.23;0.80;;;11.40;88.70;;;;;;5039346;28;20465;-47
2023/11/09 01:14:59;;;;;;;1.90;0.73;;;11.30;88.80;;;;;;5044902;28;20461;-46
2023/11/09 01:17:27;;;;;;;1.30;0.80;;;11.30;88.70;;;;;;5038531;28;20472;-46
2023/11/09 01:19:56;;;;;;;1.37;0.87;;;11.30;88.90;;;;;;5039302;28;20735;-46
2023/11/09 01:22:25;;;;;;;1.70;1.00;;;11.30;88.60;;;;;;5040633;28;20574;-45
2023/11/09 01:24:56;;;;;;;2.10;1.10;;;11.30;88.70;;;;;;5035641;28;20431;-47
2023/11/09 01:27:24;;;;;;;1.57;0.90;;;11.30;88.80;;;;;;5044777;28;20578;-47
2023/11/09 01:29:52;;;;;;;2.87;1.00;;;11.30;88.60;;;;;;5041262;28;20438;-45
2023/11/09 01:32:20;;;;;;;1.30;0.90;;;11.40;88.80;;;;;;5060354;28;20468;-45
2023/11/09 01:34:48;;;;;;;1.60;1.10;;;11.40;88.70;;;;;;5042322;28;20451;-45
2023/11/09 01:37:17;;;;;;;1.60;0.90;;;11.30;88.60;;;;;;5042444;28;20503;-47
2023/11/09 01:39:47;;;;;;;1.30;0.70;;;11.30;88.50;;;;;;5040693;28;20443;-46
2023/11/09 01:42:17;;;;;;;2.00;1.00;;;11.30;88.80;;;;;;5041841;28;20491;-47
2023/11/09 01:44:45;;;;;;;1.93;1.00;;;11.40;88.70;;;;;;5047409;28;20471;-47
2023/11/09 01:47:13;;;;;;;1.10;0.70;;;11.40;88.80;;;;;;5042241;28;20469;-46
2023/11/09 01:49:42;;;;;;;1.60;1.13;;;11.30;88.50;;;;;;5049550;28;20443;-48
2023/11/09 01:52:10;;;;;;;2.67;1.27;;;11.40;88.90;;;;;;5049972;28;20988;-47
2023/11/09 01:54:38;;;;;;;1.10;0.77;;;11.40;88.80;;;;;;5046389;28;20438;-45
2023/11/09 01:57:09;;;;;;;1.67;1.03;;;11.30;88.50;;;;;;5047061;28;20460;-46
2023/11/09 01:59:45;;;;;;;1.50;0.80;;;11.30;88.80;;;;;;5043549;28;20453;-46
2023/11/09 02:02:15;;;;;;;1.23;0.60;;;11.30;88.70;;;;;;5046172;28;20532;-46
2023/11/09 02:04:45;;;;;;;1.47;0.70;;;11.30;88.50;;;;;;5048271;28;20439;-47
2023/11/09 02:07:15;;;;;;;1.17;0.53;;;11.40;89.20;;;;;;5044394;28;20467;-46
2023/11/09 02:09:44;;;;;;;1.53;1.00;;;11.30;89.10;;;;;;5038263;28;20490;-46
2023/11/09 02:12:13;;;;;;;1.57;0.83;;;11.30;89.00;;;;;;5042472;28;20556;-47
2023/11/09 02:14:42;;;;;;;2.07;1.07;;;11.30;88.80;;;;;;5049765;28;20945;-46
2023/11/09 02:17:12;;;;;;;1.20;0.60;;;11.40;88.60;;;;;;5043565;28;20990;-47
2023/11/09 02:19:40;;;;;;;1.40;0.80;;;11.30;88.60;;;;;;5035210;28;20441;-46
2023/11/09 02:22:09;;;;;;;1.43;0.70;;;11.30;88.80;;;;;;5040584;28;20486;-46
2023/11/09 02:24:41;;;;;;;1.83;0.70;;;11.30;88.90;;;;;;5037610;28;21351;-45
2023/11/09 02:27:09;;;;;;;1.53;0.70;;;11.30;88.90;;;;;;5042495;28;20473;-47
2023/11/09 02:29:40;;;;;;;2.30;0.83;;;11.30;88.90;;;;;;5037120;28;20492;-47
2023/11/09 02:32:09;;;;;;;1.63;0.80;;;11.30;88.50;;;;;;5044539;28;20469;-46
2023/11/09 02:34:37;;;;;;;1.43;0.80;;;11.30;88.30;;;;;;5045638;28;20451;-47
2023/11/09 02:37:07;;;;;;;1.17;0.63;;;11.30;88.70;;;;;;5031675;28;20478;-48
2023/11/09 02:39:35;;;;;;;1.20;0.70;;;11.30;88.60;;;;;;5041353;28;20440;-47
2023/11/09 02:42:06;;;;;;;3.07;0.90;;;11.30;88.90;;;;;;5034793;28;20488;-47
2023/11/09 02:44:34;;;;;;;1.10;0.60;;;11.40;88.90;;;;;;5035237;28;20446;-46
2023/11/09 02:47:02;;;;;;;1.47;0.63;;;11.40;89.00;;;;;;5039743;28;20467;-47
2023/11/09 02:49:32;;;;;;;1.30;0.60;;;11.30;88.80;;;;;;5035997;28;20454;-46
2023/11/09 02:52:00;;;;;;;1.20;0.50;;;11.40;89.00;;;;;;5043761;28;20454;-46
2023/11/09 02:54:29;;;;;;;1.40;0.80;;;11.30;89.00;;;;;;5032762;28;20529;-46
2023/11/09 02:56:57;;;;;;;1.40;0.60;;;11.30;88.80;;;;;;5032580;28;20967;-47
2023/11/09 02:59:26;;;;;;;1.40;0.70;;;11.40;88.70;;;;;;5036925;28;20439;-46
2023/11/09 03:01:56;;;;;;;1.10;0.70;;;11.30;88.90;;;;;;5038234;28;20486;-47
2023/11/09 03:04:25;;;;;;;1.80;1.20;;;11.40;89.00;;;;;;5036541;28;20871;-47
2023/11/09 03:06:55;;;;;;;1.30;0.60;;;11.30;88.80;;;;;;5035240;28;20459;-47
2023/11/09 03:09:23;;;;;;;1.77;0.50;;;11.30;88.90;;;;;;5037618;28;20443;-45
2023/11/09 03:11:51;;;;;;;1.50;0.73;;;11.40;89.00;;;;;;5035996;28;20460;-45
2023/11/09 03:14:19;;;;;;;1.20;0.60;;;11.30;89.00;;;;;;5034775;28;20852;-45
2023/11/09 03:16:49;;;;;;;1.00;0.50;;;11.30;88.90;;;;;;5032550;28;20810;-46
2023/11/09 03:19:17;;;;;;;1.40;0.70;;;11.30;88.90;;;;;;5033977;28;20441;-47
2023/11/09 03:21:45;;;;;;;1.73;1.03;;;11.30;88.90;;;;;;5047752;28;20463;-47
2023/11/09 03:24:13;;;;;;;1.37;0.70;;;11.30;88.90;;;;;;5036246;28;20637;-45
2023/11/09 03:26:41;;;;;;;1.37;0.83;;;11.30;88.80;;;;;;5046216;28;20509;-45
2023/11/09 03:29:09;;;;;;;1.03;0.60;;;11.30;89.00;;;;;;5036830;28;20478;-47
2023/11/09 03:31:37;;;;;;;1.77;0.63;;;11.30;88.70;;;;;;5040217;28;20533;-47
2023/11/09 03:34:07;;;;;;;1.20;0.60;;;11.40;89.10;;;;;;5044650;28;20441;-45
2023/11/09 03:36:35;;;;;;;1.10;0.60;;;11.40;89.00;;;;;;5038630;28;20505;-45
2023/11/09 03:39:04;;;;;;;1.73;0.63;;;11.40;89.20;;;;;;5037868;28;20450;-47
2023/11/09 03:41:32;;;;;;;1.37;0.50;;;11.40;88.50;;;;;;5037749;28;20864;-45
2023/11/09 03:44:00;;;;;;;1.20;0.60;;;11.40;88.80;;;;;;5033467;28;20446;-45
2023/11/09 03:46:28;;;;;;;1.20;0.60;;;11.40;88.50;;;;;;5033937;28;20459;-45
2023/11/09 03:48:56;;;;;;;1.10;0.63;;;11.40;88.80;;;;;;5034543;28;20443;-47
2023/11/09 03:51:27;;;;;;;1.60;0.83;;;11.40;88.80;;;;;;5044264;28;20453;-47
2023/11/09 03:53:56;;;;;;;1.83;0.60;;;11.30;88.60;;;;;;5041481;28;20963;-46
2023/11/09 03:56:24;;;;;;;1.30;0.60;;;11.30;88.40;;;;;;5040299;28;20460;-46
2023/11/09 03:58:52;;;;;;;1.10;0.60;;;11.30;88.60;;;;;;5034781;28;20472;-45
2023/11/09 04:01:20;;;;;;;1.77;0.70;;;11.30;88.60;;;;;;5038126;28;20842;-47
2023/11/09 04:03:48;;;;;;;1.10;0.50;;;11.40;88.90;;;;;;5044286;28;20473;-45
2023/11/09 04:06:17;;;;;;;1.40;0.60;;;11.30;88.80;;;;;;5045054;28;20464;-47
2023/11/09 04:08:47;;;;;;;1.40;0.73;;;11.40;88.90;;;;;;5035262;28;20471;-47
2023/11/09 04:11:15;;;;;;;1.10;0.60;;;11.30;88.90;;;;;;5043062;28;20447;-45
2023/11/09 04:13:44;;;;;;;1.30;0.70;;;11.30;88.90;;;;;;5036566;28;20470;-46
2023/11/09 04:16:12;;;;;;;1.57;0.60;;;11.30;88.60;;;;;;5038684;28;20509;-46
2023/11/09 04:18:40;;;;;;;1.10;0.60;;;11.40;88.90;;;;;;5041079;28;20480;-46
2023/11/09 04:21:09;;;;;;;1.10;0.50;;;11.30;88.70;;;;;;5040399;28;20457;-46
2023/11/09 04:23:38;;;;;;;1.10;0.50;;;11.30;88.80;;;;;;5040871;28;21002;-46
2023/11/09 04:26:08;;;;;;;1.20;0.60;;;11.30;88.70;;;;;;5038804;28;20911;-48
2023/11/09 04:28:37;;;;;;;1.50;0.90;;;11.30;88.60;;;;;;5038497;28;20476;-47
2023/11/09 04:31:06;;;;;;;1.87;0.50;;;11.30;88.60;;;;;;5040630;28;20444;-47
2023/11/09 04:33:35;;;;;;;1.10;0.50;;;11.30;88.80;;;;;;5039624;28;20562;-47
2023/11/09 04:36:05;;;;;;;1.13;0.53;;;11.30;88.90;;;;;;5037153;28;20535;-48
2023/11/09 04:38:37;;;;;;;1.20;0.60;;;11.40;89.00;;;;;;5037227;28;20476;-46
2023/11/09 04:41:12;;;;;;;1.63;0.63;;;11.30;88.80;;;;;;5037719;28;20454;-47
2023/11/09 04:43:41;;;;;;;1.00;0.43;;;11.30;89.00;;;;;;5033661;28;20495;-47
2023/11/09 04:46:13;;;;;;;1.07;0.43;;;11.40;90.00;;;;;;5037615;28;20442;-48
2023/11/09 04:48:46;;;;;;;1.00;0.60;;;11.30;89.50;;;;;;5039000;28;20567;-47
2023/11/09 04:51:22;;;;;;;1.00;0.50;;;11.40;89.20;;;;;;5040160;28;20930;-47
2023/11/09 04:53:52;;;;;;;1.10;0.50;;;11.30;88.70;;;;;;5035364;28;20484;-47
2023/11/09 04:56:38;;;;;;;2.13;0.70;;;11.30;89.30;;;;;;5039215;28;20839;-47
2023/11/09 05:07:21;;;;;;;2.10;0.60;;;11.30;89.50;;;;;;5038694;28;20482;-46
2023/11/09 05:09:49;;;;;;;1.40;0.70;;;11.30;89.00;;;;;;5037195;28;20453;-46
2023/11/09 05:12:19;;;;;;;1.37;0.70;;;11.40;89.30;;;;;;5046320;28;20467;-45
2023/11/09 05:14:47;;;;;;;1.20;0.57;;;11.30;89.50;;;;;;5042941;28;20462;-45
2023/11/09 05:17:15;;;;;;;1.20;0.57;;;11.30;89.60;;;;;;5043768;28;20471;-47
2023/11/09 05:19:45;;;;;;;1.20;0.50;;;11.30;89.60;;;;;;5045436;28;20969;-46
2023/11/09 05:22:13;;;;;;;1.33;0.60;;;11.30;89.20;;;;;;5047547;28;20463;-46
2023/11/09 05:24:42;;;;;;;1.23;0.70;;;11.30;89.40;;;;;;5038298;28;20445;-45
2023/11/09 05:27:11;;;;;;;1.50;0.63;;;11.30;89.40;;;;;;5046713;28;20468;-47
2023/11/09 05:29:41;;;;;;;1.30;0.60;;;11.30;89.50;;;;;;5044305;28;20440;-47
2023/11/09 05:32:11;;;;;;;1.30;0.70;;;11.30;89.60;;;;;;5043288;28;20500;-47
2023/11/09 05:34:40;;;;;;;1.30;0.60;;;11.30;89.80;;;;;;5044985;28;20443;-46
2023/11/09 05:37:08;;;;;;;3.33;0.60;;;11.30;89.80;;;;;;5046201;28;20473;-47
2023/11/09 05:39:36;;;;;;;1.63;0.60;;;11.30;89.70;;;;;;5040199;28;20568;-46
2023/11/09 05:42:04;;;;;;;1.20;0.70;;;11.30;89.60;;;;;;5047661;28;20465;-47
2023/11/09 05:44:32;;;;;;;1.30;0.80;;;11.30;90.00;;;;;;5044388;28;20441;-46
2023/11/09 05:47:02;;;;;;;1.00;0.40;;;11.30;90.10;;;;;;5041764;28;20886;-47
2023/11/09 05:49:30;;;;;;;1.00;0.50;;;11.30;89.90;;;;;;5041283;28;20450;-45
2023/11/09 05:51:58;;;;;;;1.03;0.43;;;11.30;90.00;;;;;;5041587;28;20494;-46
2023/11/09 05:54:26;;;;;;;1.17;0.53;;;11.30;90.00;;;;;;5040886;28;20460;-47
2023/11/09 05:56:55;;;;;;;1.80;0.50;;;11.30;90.00;;;;;;5046337;28;20491;-45
2023/11/09 05:59:23;;;;;;;3.30;0.50;;;11.30;89.80;;;;;;5043806;28;20497;-47
2023/11/09 06:01:52;;;;;;;1.77;0.60;;;11.30;90.00;;;;;;5043433;28;20581;-47
2023/11/09 06:04:21;;;;;;;1.20;0.70;;;11.30;89.90;;;;;;5041707;28;20475;-45
2023/11/09 06:06:49;;;;;;;1.10;0.60;;;11.30;90.00;;;;;;5043294;28;20467;-46
2023/11/09 06:09:17;;;;;;;1.27;0.50;;;11.30;89.90;;;;;;5042516;28;20575;-46
2023/11/09 06:11:46;;;;;;;1.20;0.50;;;11.30;89.80;;;;;;5042284;28;20490;-46
2023/11/09 06:14:16;;;;;;;0.97;0.43;;;11.30;90.00;;;;;;5042146;28;20526;-46
2023/11/09 06:16:44;;;;;;;1.23;0.60;;;11.30;89.90;;;;;;5043963;28;20470;-47
2023/11/09 06:19:13;;;;;;;2.10;0.90;;;11.30;89.90;;;;;;5041229;28;20539;-47
2023/11/09 06:21:43;;;;;;;1.10;0.50;;;11.30;90.00;;;;;;5044174;28;20466;-47
2023/11/09 06:24:11;;;;;;;1.20;0.70;;;11.30;90.00;;;;;;5039342;28;20455;-45
2023/11/09 06:26:39;;;;;;;1.20;0.47;;;11.30;90.00;;;;;;5042489;28;20463;-45
2023/11/09 06:29:08;;;;;;;1.20;0.60;;;11.30;89.90;;;;;;5042552;28;20430;-45
2023/11/09 06:31:36;;;;;;;1.27;0.43;;;11.30;90.00;;;;;;5042210;28;20810;-45
2023/11/09 06:34:14;;;;;;;1.37;0.50;;;11.30;90.00;;;;;;5043716;28;20546;-47
2023/11/09 06:36:45;;;;;;;1.73;0.70;;;11.30;89.90;;;;;;5042533;28;20550;-47
2023/11/09 06:39:16;;;;;;;1.37;0.60;;;11.30;90.00;;;;;;5047841;28;20462;-45
2023/11/09 06:41:45;;;;;;;1.23;0.80;;;11.30;90.00;;;;;;5047625;28;20445;-46
2023/11/09 06:44:13;;;;;;;1.10;0.50;;;11.30;89.90;;;;;;5050466;28;20440;-46
2023/11/09 06:46:42;;;;;;;1.13;0.50;;;11.30;90.00;;;;;;5044531;28;20459;-45
2023/11/09 06:49:11;;;;;;;1.20;0.50;;;11.30;90.10;;;;;;5043245;28;20428;-47
2023/11/09 06:51:39;;;;;;;1.30;0.60;;;11.30;90.00;;;;;;5041033;28;20439;-47
2023/11/09 06:54:08;;;;;;;0.90;0.40;;;11.30;90.00;;;;;;5046807;28;20539;-47
2023/11/09 06:56:37;;;;;;;1.03;0.50;;;11.30;90.00;;;;;;5043105;28;20466;-47
2023/11/09 06:59:05;;;;;;;1.43;0.40;;;11.30;90.10;;;;;;5061970;28;20468;-47
2023/11/09 07:01:35;;;;;;;1.10;0.43;;;11.30;90.00;;;;;;5066730;28;20444;-46
2023/11/09 07:04:04;;;;;;;1.30;0.50;;;11.30;90.00;;;;;;5039550;28;20427;-47
2023/11/09 07:06:32;;;;;;;1.13;0.40;;;11.30;90.00;;;;;;5040904;28;21013;-47
2023/11/09 07:09:01;;;;;;;1.43;0.40;;;11.30;90.00;;;;;;5046835;28;20438;-44
2023/11/09 07:11:32;;;;;;;1.27;0.60;;;11.30;90.00;;;;;;5047400;28;20439;-45
2023/11/09 07:14:03;;;;;;;1.00;0.50;;;11.30;89.70;;;;;;5035509;28;20459;-45
2023/11/09 07:16:31;;;;;;;1.30;0.50;;;11.30;90.00;;;;;;5042823;28;20464;-45
2023/11/09 07:19:00;;;;;;;1.47;0.50;;;11.30;89.80;;;;;;5033757;28;20468;-46
2023/11/09 07:21:31;;;;;;;1.10;0.40;;;11.30;89.80;;;;;;5041630;28;21038;-45
2023/11/09 07:24:04;;;;;;;1.40;0.50;;;11.30;89.90;;;;;;5042827;28;20510;-46
2023/11/09 07:26:33;;;;;;;1.00;0.40;;;11.30;89.90;;;;;;5041154;28;21058;-45
2023/11/09 07:29:02;;;;;;;0.90;0.40;;;11.30;89.90;;;;;;5060536;28;21413;-46
2023/11/09 07:31:30;;;;;;;1.20;0.53;;;11.30;89.70;;;;;;5065823;28;20785;-45
2023/11/09 07:33:58;;;;;;;0.97;0.50;;;11.30;89.40;;;;;;5065403;28;20508;-46
2023/11/09 07:36:26;;;;;;;1.93;0.60;;;11.30;89.40;;;;;;5068309;28;20460;-45
2023/11/09 07:38:54;;;;;;;1.30;0.60;;;11.30;89.80;;;;;;5064333;28;20475;-46
2023/11/09 07:41:28;;;;;;;1.47;0.50;;;11.30;89.70;;;;;;5067695;28;20447;-45
2023/11/09 07:43:58;;;;;;;1.67;0.50;;;11.30;89.70;;;;;;5047479;28;20816;-45
2023/11/09 07:46:26;;;;;;;1.00;0.40;;;11.30;89.80;;;;;;5044699;28;20992;-46
2023/11/09 07:48:57;;;;;;;1.00;0.40;;;11.30;89.80;;;;;;5043819;28;20475;-47
2023/11/09 07:51:25;;;;;;;1.20;0.60;;;11.30;89.60;;;;;;5044959;28;20429;-47
2023/11/09 07:53:55;;;;;;;1.10;0.60;;;11.30;89.50;;;;;;5039694;28;20995;-47
2023/11/09 07:56:23;;;;;;;1.10;0.40;;;11.30;89.80;;;;;;5041656;28;20957;-47
2023/11/09 07:58:51;;;;;;;1.10;0.40;;;11.30;89.70;;;;;;5038908;28;20518;-46
2023/11/09 08:01:21;;;;;;;1.30;0.57;;;11.30;89.70;;;;;;5042135;28;20475;-47
2023/11/09 08:03:49;;;;;;;1.20;0.60;;;11.30;89.90;;;;;;5043130;28;20473;-47
2023/11/09 08:06:17;;;;;;;1.20;0.40;;;11.30;89.80;;;;;;5042995;28;20460;-47
2023/11/09 08:08:48;;;;;;;1.00;0.40;;;11.30;89.30;;;;;;5057197;28;20553;-45
2023/11/09 08:11:16;;;;;;;1.10;0.50;;;11.30;89.00;;;;;;5065783;28;20527;-45
2023/11/09 08:13:53;;;;;;;1.17;0.50;;;11.30;89.00;;;;;;5066425;28;21006;-45
2023/11/09 08:16:22;;;;;;;1.47;0.57;;;11.30;89.10;;;;;;5065044;28;21035;-45
2023/11/09 08:18:55;;;;;;;1.40;0.60;;;11.30;88.90;;;;;;5048868;28;20452;-45
2023/11/09 08:21:26;;;;;;;1.47;0.50;;;11.30;88.70;;;;;;5046930;28;20467;-45
2023/11/09 08:23:54;;;;;;;1.77;0.57;;;11.30;88.90;;;;;;5064473;28;20476;-45
2023/11/09 08:26:22;;;;;;;1.73;0.50;;;11.30;88.90;;;;;;5064343;28;20460;-46
2023/11/09 08:28:50;;;;;;;1.50;0.63;;;11.30;88.80;;;;;;5050022;28;20459;-46
2023/11/09 08:31:19;;;;;;;1.20;0.70;;;11.30;88.70;;;;;;5049233;28;20911;-46
2023/11/09 08:33:49;;;;;;;1.40;0.40;;;11.30;88.70;;;;;;5042050;28;20569;-46
2023/11/09 08:36:18;;;;;;;1.27;0.50;;;11.30;88.60;;;;;;5040978;28;20464;-45
2023/11/09 08:38:47;;;;;;;1.53;0.70;;;11.30;88.80;;;;;;5059481;28;20461;-46
2023/11/09 08:41:15;;;;;;;2.70;0.83;;;11.30;88.90;;;;;;5063852;28;20466;-46
2023/11/09 08:43:48;;;;;;;2.10;0.80;;;11.30;88.90;;;;;;5050240;28;20481;-46
2023/11/09 08:46:17;;;;;;;1.47;0.80;;;11.30;90.20;;;;;;5048794;28;20532;-45
2023/11/09 08:48:45;;;;;;;1.20;0.60;;;11.30;89.20;;;;;;5062624;28;20990;-46
2023/11/09 08:51:15;;;;;;;2.10;0.60;;;11.30;88.90;;;;;;5065380;28;20422;-46
2023/11/09 08:53:44;;;;;;;2.03;0.60;;;11.30;90.10;;;;;;5034976;28;20479;-45
2023/11/09 08:56:17;;;;;;;2.40;0.93;;;11.30;88.90;;;;;;5043924;28;20808;-45
2023/11/09 08:58:46;;;;;;;1.70;0.80;;;11.30;88.90;;;;;;5046908;28;20466;-46
2023/11/09 09:01:17;;;;;;;1.87;0.70;;;11.30;88.80;;;;;;5046222;28;20481;-46
2023/11/09 09:03:49;;;;;;;1.30;0.50;;;11.30;88.90;;;;;;5061859;28;20475;-45
2023/11/09 09:06:20;;;;;;;1.30;1.17;;;11.30;88.70;;;;;;5043095;28;20541;-46
2023/11/09 09:08:49;;;;;;;1.20;0.50;;;11.30;88.70;;;;;;5042613;28;20585;-45
2023/11/09 09:11:18;;;;;;;1.47;0.70;;;11.30;88.80;;;;;;5041598;28;20483;-47
2023/11/09 09:13:46;;;;;;;1.70;0.67;;;11.30;88.80;;;;;;5046626;28;20486;-46
2023/11/09 09:16:18;;;;;;;3.33;0.97;;;11.30;88.70;;;;;;5045076;28;20478;-45
2023/11/09 09:18:49;;;;;;;2.97;1.53;;;11.30;88.90;;;;;;5043736;28;20472;-45
2023/11/09 09:21:19;;;;;;;1.20;0.57;;;11.30;88.80;;;;;;5047721;28;20498;-46
2023/11/09 09:23:50;;;;;;;1.70;1.03;;;11.30;88.90;;;;;;5041497;28;20892;-46
2023/11/09 09:26:18;;;;;;;1.10;0.50;;;11.30;89.20;;;;;;5046214;28;20467;-46
2023/11/09 09:28:47;;;;;;;1.43;0.70;;;11.30;88.80;;;;;;5044033;28;20471;-46
2023/11/09 09:31:18;;;;;;;1.33;0.60;;;11.30;89.10;;;;;;5042929;28;20448;-46
2023/11/09 09:34:00;;;;;;;3.45;1.50;;;11.30;88.90;;;;;;5043442;28;20613;-45
2023/11/09 09:36:29;;;;;;;2.67;1.10;;;11.30;90.30;;;;;;5043845;28;20213;-46
2023/11/09 09:38:57;;;;;;;2.77;1.00;;;11.30;90.20;;;;;;5039362;28;20464;-46
2023/11/09 09:41:29;;;;;;;3.93;1.27;;;11.30;90.10;;;;;;5044071;28;20845;-46
2023/11/09 09:43:58;;;;;;;2.67;1.03;;;11.30;90.00;;;;;;5046159;28;20499;-46
2023/11/09 09:46:33;;;;;;;1.87;1.10;;;11.30;90.00;;;;;;5042194;28;20992;-46
2023/11/09 09:49:02;;;;;;;2.27;0.70;;;11.30;89.90;;;;;;5040737;28;20474;-45
2023/11/09 09:51:34;;;;;;;4.20;0.87;;;11.30;89.70;;;;;;5042051;28;20526;-46
2023/11/09 09:54:03;;;;;;;3.83;1.67;;;11.30;89.50;;;;;;5035217;28;20477;-47
2023/11/09 09:56:34;;;;;;;3.20;0.90;;;11.30;89.70;;;;;;5043463;28;20471;-46
2023/11/09 09:59:03;;;;;;;2.40;1.13;;;11.30;89.40;;;;;;5042116;28;20465;-45
2023/11/09 10:01:35;;;;;;;2.63;1.10;;;11.30;89.70;;;;;;5044214;28;20463;-47
2023/11/09 10:04:05;;;;;;;2.47;0.90;;;11.30;89.60;;;;;;5040913;28;20873;-46
2023/11/09 10:06:34;;;;;;;2.50;0.77;;;11.30;89.40;;;;;;5047024;28;20448;-46
2023/11/09 10:09:05;;;;;;;2.13;1.13;;;11.30;89.40;;;;;;5043076;28;20453;-46
2023/11/09 10:11:34;;;;;;;2.00;0.90;;;11.30;89.60;;;;;;5041324;28;20441;-46
2023/11/09 10:14:02;;;;;;;2.53;1.20;;;11.30;89.40;;;;;;5051328;28;20428;-45
2023/11/09 10:16:31;;;;;;;3.60;1.17;;;11.30;89.80;;;;;;5048048;28;21072;-45
2023/11/09 10:19:02;;;;;;;2.03;0.90;;;11.30;89.80;;;;;;5046653;28;20804;-45
2023/11/09 10:21:31;;;;;;;2.20;1.00;;;11.30;89.60;;;;;;5050213;28;20471;-46
2023/11/09 10:24:02;;;;;;;2.70;1.20;;;11.30;89.10;;;;;;5060240;28;20473;-45
2023/11/09 10:26:40;;;;;;;3.77;1.00;;;11.30;89.30;;;;;;5065717;28;20566;-46
2023/11/09 10:29:13;;;;;;;2.30;0.90;;;11.30;89.50;;;;;;5038185;28;20976;-46
2023/11/09 10:31:43;;;;;;;5.83;1.70;;;11.30;89.30;;;;;;5047605;28;20432;-45
2023/11/09 10:34:11;;;;;;;1.50;0.70;;;11.30;89.10;;;;;;5040624;28;20444;-46
2023/11/09 10:36:44;;;;;;;2.13;1.00;;;11.30;89.00;;;;;;5039907;28;20546;-46
2023/11/09 10:39:19;;;;;;;3.40;0.80;;;11.30;89.20;;;;;;5033005;28;20445;-47
2023/11/09 10:41:49;;;;;;;2.20;0.73;;;11.40;88.90;;;;;;5042700;28;20566;-44
2023/11/09 10:44:28;;;;;;;4.10;1.37;;;11.30;88.80;;;;;;5040079;28;20864;-46
2023/11/09 10:47:01;;;;;;;2.87;0.83;;;11.40;88.90;;;;;;5036434;28;20839;-47
2023/11/09 10:49:37;;;;;;;1.90;0.90;;;11.40;88.70;;;;;;5042378;28;20444;-45
2023/11/09 10:52:08;;;;;;;2.40;0.97;;;11.40;88.40;;;;;;5038856;28;20470;-46
2023/11/09 10:54:44;;;;;;;3.20;1.33;;;11.40;88.50;;;;;;5034403;28;20449;-47
2023/11/09 10:57:13;;;;;;;2.70;1.17;;;11.30;88.70;;;;;;5041682;28;20547;-45
2023/11/09 10:59:42;;;;;;;2.43;1.10;;;11.40;88.20;;;;;;5042176;28;20463;-45
2023/11/09 11:02:18;;;;;;;1.97;0.80;;;11.40;88.80;;;;;;5043120;28;20471;-46
2023/11/09 11:04:50;;;;;;;2.40;0.80;;;11.40;88.30;;;;;;5043956;28;20464;-47
2023/11/09 11:07:21;;;;;;;3.57;1.00;;;11.40;88.40;;;;;;5038379;28;20478;-47
2023/11/09 11:09:53;;;;;;;2.87;1.10;;;11.40;88.40;;;;;;5041752;28;20444;-47
2023/11/09 11:12:23;;;;;;;1.20;0.70;;;11.40;88.30;;;;;;5037360;28;20485;-47
2023/11/09 11:14:53;;;;;;;2.73;1.20;;;11.40;88.30;;;;;;5047746;28;20802;-47
2023/11/09 11:17:31;;;;;;;2.30;1.00;;;11.30;88.10;;;;;;5039297;28;20891;-47
2023/11/09 11:20:36;;;;;;;1.90;0.70;;;11.30;88.30;;;;;;5038176;28;20427;-46
2023/11/09 11:23:21;;;;;;;1.17;0.70;;;11.40;88.40;;;;;;5011503;28;20479;-46
2023/11/09 11:25:58;;;;;;;1.87;0.80;;;11.30;88.10;;;;;;5042529;28;20460;-47
2023/11/09 11:28:27;;;;;;;2.13;0.90;;;11.40;88.20;;;;;;5036710;28;20547;-47
2023/11/09 11:31:02;;;;;;;3.37;1.20;;;11.30;88.20;;;;;;5047061;28;20932;-46
2023/11/09 11:33:34;;;;;;;2.23;0.90;;;11.30;88.10;;;;;;5036396;28;21176;-47
2023/11/09 11:36:02;;;;;;;2.37;0.97;;;11.30;88.10;;;;;;5038582;28;20591;-47
2023/11/09 11:38:33;;;;;;;1.77;0.97;;;11.30;88.10;;;;;;5030622;28;21558;-48
2023/11/09 11:41:17;;;;;;;1.87;0.90;;;11.40;88.20;;;;;;5047579;28;21038;-46
2023/11/09 11:43:50;;;;;;;2.27;1.00;;;11.30;88.00;;;;;;5041855;28;20462;-44
2023/11/09 11:46:20;;;;;;;3.00;1.20;;;11.30;87.80;;;;;;5047344;28;20448;-45
2023/11/09 11:48:52;;;;;;;3.30;1.63;;;11.40;88.00;;;;;;5031815;28;20473;-45
2023/11/09 11:51:22;;;;;;;1.90;0.87;;;11.40;87.80;;;;;;5037141;28;20420;-44
2023/11/09 11:53:52;;;;;;;4.80;1.20;;;11.40;87.80;;;;;;5032020;28;20540;-45
2023/11/09 11:56:32;;;;;;;4.40;1.77;;;11.40;87.70;;;;;;5042156;28;21058;-46
2023/11/09 11:59:07;;;;;;;6.83;2.30;;;11.50;87.80;;;;;;5035442;28;20882;-45
2023/11/09 12:01:36;;;;;;;5.20;1.77;;;11.50;87.80;;;;;;5032040;28;20980;-44
2023/11/09 12:04:06;;;;;;;4.07;2.00;;;11.50;87.90;;;;;;5034465;28;20455;-45
2023/11/09 12:06:37;;;;;;;5.80;1.70;;;11.50;87.60;;;;;;5045569;28;20210;-45
2023/11/09 12:09:10;;;;;;;4.80;1.50;;;11.50;87.40;;;;;;5038888;28;20456;-45
2023/11/09 12:11:45;;;;;;;5.70;1.90;;;11.50;87.30;;;;;;5037945;28;20456;-45
2023/11/09 12:14:17;;;;;;;2.37;1.57;;;11.50;87.40;;;;;;5038496;28;20421;-47
2023/11/09 12:16:45;;;;;;;11.17;2.30;;;11.50;87.60;;;;;;5035563;28;20443;-45
2023/11/09 12:19:15;;;;;;;2.83;1.50;;;11.50;87.50;;;;;;5036919;28;20533;-45
2023/11/09 12:21:46;;;;;;;3.23;1.60;;;11.40;87.50;;;;;;5043013;28;20455;-46
2023/11/09 12:24:21;;;;;;;3.10;1.27;;;11.40;87.60;;;;;;5039595;28;20895;-47
2023/11/09 12:27:06;;;;;;;4.37;1.73;;;11.40;87.50;;;;;;5040840;28;20452;-46
2023/11/09 12:29:41;;;;;;;4.23;1.50;;;11.50;87.60;;;;;;5040551;28;20453;-46
2023/11/09 12:32:12;;;;;;;6.70;1.60;;;11.40;87.70;;;;;;5043464;28;20552;-46
2023/11/09 12:34:42;;;;;;;3.40;1.43;;;11.40;87.70;;;;;;5040052;28;20455;-46
2023/11/09 12:37:13;;;;;;;4.30;1.13;;;11.50;87.70;;;;;;5037433;28;20543;-46
2023/11/09 12:39:43;;;;;;;2.40;1.10;;;11.50;87.60;;;;;;5040852;28;20442;-46
2023/11/09 12:42:23;;;;;;;2.20;1.10;;;11.50;87.60;;;;;;5040625;28;20464;-45
2023/11/09 12:44:53;;;;;;;3.00;1.23;;;11.50;87.60;;;;;;5043970;28;20916;-46
2023/11/09 12:47:21;;;;;;;2.77;1.47;;;11.50;87.50;;;;;;5036372;28;20476;-45
2023/11/09 12:49:53;;;;;;;3.17;1.50;;;11.50;87.80;;;;;;5040541;28;20437;-46
2023/11/09 12:52:25;;;;;;;2.33;1.07;;;11.50;87.40;;;;;;5039858;28;20462;-47
2023/11/09 12:54:54;;;;;;;3.33;1.10;;;11.50;87.60;;;;;;5037111;28;20467;-46
2023/11/09 12:57:29;;;;;;;2.53;1.10;;;11.50;87.60;;;;;;5036764;28;20470;-45
2023/11/09 12:59:57;;;;;;;1.47;0.90;;;11.50;87.40;;;;;;5035400;28;20429;-46
2023/11/09 13:02:34;;;;;;;2.83;1.07;;;11.50;87.50;;;;;;5034641;28;21044;-45
2023/11/09 13:05:03;;;;;;;2.97;1.13;;;11.50;87.50;;;;;;5035383;28;20514;-46
2023/11/09 13:07:31;;;;;;;4.20;1.37;;;11.50;87.30;;;;;;5033559;28;20488;-46
2023/11/09 13:12:45;;;;;;;3.03;1.40;;;11.50;87.40;;;;;;5043086;28;20550;-45